sensor_id;sensor_type;location;lat;lon;timestamp;P1;durP1;ratioP1;P2;durP2;ratioP2
78489;SDS011;67776;52.012;4.736;2023-04-08T00:00:47;45.20;;;18.27;;
78489;SDS011;67776;52.012;4.736;2023-04-08T00:03:13;45.83;;;18.65;;
78489;SDS011;67776;52.012;4.736;2023-04-08T00:05:44;46.73;;;17.03;;
78489;SDS011;67776;52.012;4.736;2023-04-08T00:08:10;47.83;;;18.50;;
78489;SDS011;67776;52.012;4.736;2023-04-08T00:10:38;45.72;;;18.95;;
78489;SDS011;67776;52.012;4.736;2023-04-08T00:13:03;43.77;;;18.23;;
78489;SDS011;67776;52.012;4.736;2023-04-08T00:15:28;49.73;;;18.07;;
78489;SDS011;67776;52.012;4.736;2023-04-08T00:17:54;51.50;;;19.00;;
78489;SDS011;67776;52.012;4.736;2023-04-08T00:20:22;51.23;;;18.43;;
78489;SDS011;67776;52.012;4.736;2023-04-08T00:22:48;49.70;;;19.63;;
78489;SDS011;67776;52.012;4.736;2023-04-08T00:25:13;53.17;;;19.47;;
78489;SDS011;67776;52.012;4.736;2023-04-08T00:27:39;54.08;;;19.35;;
78489;SDS011;67776;52.012;4.736;2023-04-08T00:30:04;51.13;;;18.80;;
78489;SDS011;67776;52.012;4.736;2023-04-08T00:32:30;54.47;;;19.17;;
78489;SDS011;67776;52.012;4.736;2023-04-08T00:34:56;56.30;;;19.70;;
78489;SDS011;67776;52.012;4.736;2023-04-08T00:37:24;55.22;;;18.33;;
78489;SDS011;67776;52.012;4.736;2023-04-08T00:39:50;55.85;;;19.77;;
78489;SDS011;67776;52.012;4.736;2023-04-08T00:42:17;61.70;;;19.40;;
78489;SDS011;67776;52.012;4.736;2023-04-08T00:44:43;54.63;;;19.23;;
78489;SDS011;67776;52.012;4.736;2023-04-08T00:47:11;56.73;;;19.87;;
78489;SDS011;67776;52.012;4.736;2023-04-08T00:49:36;57.90;;;19.40;;
78489;SDS011;67776;52.012;4.736;2023-04-08T00:52:02;55.80;;;19.05;;
78489;SDS011;67776;52.012;4.736;2023-04-08T00:54:27;53.50;;;18.53;;
78489;SDS011;67776;52.012;4.736;2023-04-08T00:56:54;56.13;;;18.13;;
78489;SDS011;67776;52.012;4.736;2023-04-08T00:59:19;56.90;;;18.50;;
78489;SDS011;67776;52.012;4.736;2023-04-08T01:01:50;58.13;;;18.83;;
78489;SDS011;67776;52.012;4.736;2023-04-08T01:07:00;57.60;;;19.30;;
78489;SDS011;67776;52.012;4.736;2023-04-08T01:09:34;57.03;;;18.80;;
78489;SDS011;67776;52.012;4.736;2023-04-08T01:12:03;56.30;;;17.50;;
78489;SDS011;67776;52.012;4.736;2023-04-08T01:14:31;53.60;;;18.25;;
78489;SDS011;67776;52.012;4.736;2023-04-08T01:17:03;57.92;;;19.23;;
78489;SDS011;67776;52.012;4.736;2023-04-08T01:19:31;52.15;;;18.25;;
78489;SDS011;67776;52.012;4.736;2023-04-08T01:22:01;63.20;;;19.33;;
78489;SDS011;67776;52.012;4.736;2023-04-08T01:24:32;61.57;;;18.77;;
78489;SDS011;67776;52.012;4.736;2023-04-08T01:27:02;58.97;;;18.48;;
78489;SDS011;67776;52.012;4.736;2023-04-08T01:29:29;59.47;;;19.40;;
78489;SDS011;67776;52.012;4.736;2023-04-08T01:31:55;62.25;;;18.95;;
78489;SDS011;67776;52.012;4.736;2023-04-08T01:34:27;55.08;;;19.15;;
78489;SDS011;67776;52.012;4.736;2023-04-08T01:36:54;53.10;;;18.63;;
78489;SDS011;67776;52.012;4.736;2023-04-08T01:39:21;52.38;;;18.27;;
78489;SDS011;67776;52.012;4.736;2023-04-08T01:41:47;56.03;;;18.73;;
78489;SDS011;67776;52.012;4.736;2023-04-08T01:44:14;60.00;;;19.63;;
78489;SDS011;67776;52.012;4.736;2023-04-08T01:46:40;50.45;;;18.35;;
78489;SDS011;67776;52.012;4.736;2023-04-08T01:49:06;57.92;;;18.58;;
78489;SDS011;67776;52.012;4.736;2023-04-08T01:51:33;53.22;;;17.95;;
78489;SDS011;67776;52.012;4.736;2023-04-08T01:53:59;47.75;;;17.65;;
78489;SDS011;67776;52.012;4.736;2023-04-08T01:56:24;50.20;;;17.90;;
78489;SDS011;67776;52.012;4.736;2023-04-08T01:58:53;56.22;;;18.02;;
78489;SDS011;67776;52.012;4.736;2023-04-08T02:01:26;49.27;;;17.53;;
78489;SDS011;67776;52.012;4.736;2023-04-08T02:03:54;48.95;;;16.63;;
78489;SDS011;67776;52.012;4.736;2023-04-08T02:06:22;48.53;;;16.58;;
78489;SDS011;67776;52.012;4.736;2023-04-08T02:08:50;42.95;;;15.27;;
78489;SDS011;67776;52.012;4.736;2023-04-08T02:11:15;37.47;;;14.53;;
78489;SDS011;67776;52.012;4.736;2023-04-08T02:13:41;42.00;;;15.20;;
78489;SDS011;67776;52.012;4.736;2023-04-08T02:16:21;40.80;;;15.73;;
78489;SDS011;67776;52.012;4.736;2023-04-08T02:18:53;43.70;;;16.23;;
78489;SDS011;67776;52.012;4.736;2023-04-08T02:21:24;39.28;;;14.68;;
78489;SDS011;67776;52.012;4.736;2023-04-08T02:23:56;42.22;;;14.70;;
78489;SDS011;67776;52.012;4.736;2023-04-08T02:26:23;39.43;;;15.10;;
78489;SDS011;67776;52.012;4.736;2023-04-08T02:28:50;45.90;;;15.15;;
78489;SDS011;67776;52.012;4.736;2023-04-08T02:31:18;41.33;;;14.10;;
78489;SDS011;67776;52.012;4.736;2023-04-08T02:33:44;39.70;;;14.65;;
78489;SDS011;67776;52.012;4.736;2023-04-08T02:36:10;46.50;;;15.82;;
78489;SDS011;67776;52.012;4.736;2023-04-08T02:38:37;52.20;;;15.83;;
78489;SDS011;67776;52.012;4.736;2023-04-08T02:41:02;48.65;;;15.50;;
78489;SDS011;67776;52.012;4.736;2023-04-08T02:43:27;49.70;;;15.77;;
78489;SDS011;67776;52.012;4.736;2023-04-08T02:45:57;47.88;;;14.80;;
78489;SDS011;67776;52.012;4.736;2023-04-08T02:48:24;56.03;;;15.70;;
78489;SDS011;67776;52.012;4.736;2023-04-08T02:50:50;68.07;;;16.17;;
78489;SDS011;67776;52.012;4.736;2023-04-08T02:53:15;69.53;;;15.23;;
78489;SDS011;67776;52.012;4.736;2023-04-08T02:55:43;81.25;;;16.58;;
78489;SDS011;67776;52.012;4.736;2023-04-08T02:58:09;133.00;;;16.67;;
78489;SDS011;67776;52.012;4.736;2023-04-08T03:00:35;107.60;;;15.60;;
78489;SDS011;67776;52.012;4.736;2023-04-08T03:03:03;158.00;;;16.52;;
78489;SDS011;67776;52.012;4.736;2023-04-08T03:05:29;116.30;;;14.40;;
78489;SDS011;67776;52.012;4.736;2023-04-08T03:07:54;164.93;;;16.08;;
78489;SDS011;67776;52.012;4.736;2023-04-08T03:10:23;167.97;;;15.80;;
78489;SDS011;67776;52.012;4.736;2023-04-08T03:12:49;156.95;;;15.75;;
78489;SDS011;67776;52.012;4.736;2023-04-08T03:15:14;118.23;;;16.47;;
78489;SDS011;67776;52.012;4.736;2023-04-08T03:17:40;199.53;;;17.77;;
78489;SDS011;67776;52.012;4.736;2023-04-08T03:20:06;212.77;;;16.92;;
78489;SDS011;67776;52.012;4.736;2023-04-08T03:22:32;184.80;;;16.02;;
78489;SDS011;67776;52.012;4.736;2023-04-08T03:24:58;140.40;;;14.23;;
78489;SDS011;67776;52.012;4.736;2023-04-08T03:27:27;238.25;;;15.75;;
78489;SDS011;67776;52.012;4.736;2023-04-08T03:29:54;152.05;;;13.80;;
78489;SDS011;67776;52.012;4.736;2023-04-08T03:32:19;146.23;;;12.77;;
78489;SDS011;67776;52.012;4.736;2023-04-08T03:34:47;133.43;;;12.27;;
78489;SDS011;67776;52.012;4.736;2023-04-08T03:37:15;170.80;;;15.10;;
78489;SDS011;67776;52.012;4.736;2023-04-08T03:39:41;177.95;;;15.63;;
78489;SDS011;67776;52.012;4.736;2023-04-08T03:42:06;197.83;;;14.37;;
78489;SDS011;67776;52.012;4.736;2023-04-08T03:44:31;169.20;;;15.63;;
78489;SDS011;67776;52.012;4.736;2023-04-08T03:46:57;122.20;;;14.35;;
78489;SDS011;67776;52.012;4.736;2023-04-08T03:49:26;114.78;;;14.85;;
78489;SDS011;67776;52.012;4.736;2023-04-08T03:51:52;89.10;;;13.03;;
78489;SDS011;67776;52.012;4.736;2023-04-08T03:54:17;111.40;;;12.98;;
78489;SDS011;67776;52.012;4.736;2023-04-08T03:56:43;143.13;;;14.47;;
78489;SDS011;67776;52.012;4.736;2023-04-08T03:59:08;165.70;;;16.40;;
78489;SDS011;67776;52.012;4.736;2023-04-08T04:01:34;160.98;;;16.65;;
78489;SDS011;67776;52.012;4.736;2023-04-08T04:03:59;133.03;;;15.10;;
78489;SDS011;67776;52.012;4.736;2023-04-08T04:06:25;160.20;;;15.50;;
78489;SDS011;67776;52.012;4.736;2023-04-08T04:08:52;177.68;;;15.63;;
78489;SDS011;67776;52.012;4.736;2023-04-08T04:11:20;92.57;;;14.07;;
78489;SDS011;67776;52.012;4.736;2023-04-08T04:13:47;129.80;;;13.98;;
78489;SDS011;67776;52.012;4.736;2023-04-08T04:16:13;196.67;;;16.80;;
78489;SDS011;67776;52.012;4.736;2023-04-08T04:18:38;144.73;;;15.67;;
78489;SDS011;67776;52.012;4.736;2023-04-08T04:21:04;117.40;;;15.53;;
78489;SDS011;67776;52.012;4.736;2023-04-08T04:23:32;155.27;;;17.25;;
78489;SDS011;67776;52.012;4.736;2023-04-08T04:25:58;184.37;;;15.67;;
78489;SDS011;67776;52.012;4.736;2023-04-08T04:28:23;148.37;;;15.40;;
78489;SDS011;67776;52.012;4.736;2023-04-08T04:30:48;113.43;;;13.40;;
78489;SDS011;67776;52.012;4.736;2023-04-08T04:33:14;117.40;;;14.00;;
78489;SDS011;67776;52.012;4.736;2023-04-08T04:35:39;87.28;;;11.63;;
78489;SDS011;67776;52.012;4.736;2023-04-08T04:38:05;125.47;;;13.20;;
78489;SDS011;67776;52.012;4.736;2023-04-08T04:40:35;131.15;;;13.38;;
78489;SDS011;67776;52.012;4.736;2023-04-08T04:43:02;139.90;;;13.13;;
78489;SDS011;67776;52.012;4.736;2023-04-08T04:45:30;130.93;;;13.85;;
78489;SDS011;67776;52.012;4.736;2023-04-08T04:47:55;111.87;;;13.93;;
78489;SDS011;67776;52.012;4.736;2023-04-08T04:50:21;103.43;;;15.10;;
78489;SDS011;67776;52.012;4.736;2023-04-08T04:52:47;94.23;;;14.00;;
78489;SDS011;67776;52.012;4.736;2023-04-08T04:55:12;97.35;;;15.60;;
78489;SDS011;67776;52.012;4.736;2023-04-08T04:57:39;94.97;;;15.48;;
78489;SDS011;67776;52.012;4.736;2023-04-08T05:00:05;94.67;;;16.60;;
78489;SDS011;67776;52.012;4.736;2023-04-08T05:02:32;90.43;;;15.60;;
78489;SDS011;67776;52.012;4.736;2023-04-08T05:04:58;119.80;;;17.10;;
78489;SDS011;67776;52.012;4.736;2023-04-08T05:07:24;89.47;;;14.67;;
78489;SDS011;67776;52.012;4.736;2023-04-08T05:09:49;123.78;;;17.92;;
78489;SDS011;67776;52.012;4.736;2023-04-08T05:12:15;154.73;;;17.63;;
78489;SDS011;67776;52.012;4.736;2023-04-08T05:14:40;98.70;;;16.83;;
78489;SDS011;67776;52.012;4.736;2023-04-08T05:17:06;92.50;;;14.82;;
78489;SDS011;67776;52.012;4.736;2023-04-08T05:19:31;101.00;;;16.43;;
78489;SDS011;67776;52.012;4.736;2023-04-08T05:21:56;102.23;;;16.63;;
78489;SDS011;67776;52.012;4.736;2023-04-08T05:24:22;111.10;;;16.70;;
78489;SDS011;67776;52.012;4.736;2023-04-08T05:26:48;94.20;;;17.00;;
78489;SDS011;67776;52.012;4.736;2023-04-08T05:29:17;85.78;;;16.63;;
78489;SDS011;67776;52.012;4.736;2023-04-08T05:31:43;123.38;;;18.33;;
78489;SDS011;67776;52.012;4.736;2023-04-08T05:34:08;130.83;;;16.47;;
78489;SDS011;67776;52.012;4.736;2023-04-08T05:36:41;138.80;;;18.00;;
78489;SDS011;67776;52.012;4.736;2023-04-08T05:39:06;129.10;;;18.33;;
78489;SDS011;67776;52.012;4.736;2023-04-08T05:41:32;116.13;;;16.47;;
78489;SDS011;67776;52.012;4.736;2023-04-08T05:43:57;106.23;;;16.30;;
78489;SDS011;67776;52.012;4.736;2023-04-08T05:46:33;86.23;;;15.57;;
78489;SDS011;67776;52.012;4.736;2023-04-08T05:48:58;91.43;;;15.53;;
78489;SDS011;67776;52.012;4.736;2023-04-08T05:51:23;101.03;;;16.75;;
78489;SDS011;67776;52.012;4.736;2023-04-08T05:53:49;103.03;;;16.07;;
78489;SDS011;67776;52.012;4.736;2023-04-08T05:56:14;111.20;;;17.23;;
78489;SDS011;67776;52.012;4.736;2023-04-08T05:58:40;103.17;;;17.07;;
78489;SDS011;67776;52.012;4.736;2023-04-08T06:01:05;87.53;;;16.50;;
78489;SDS011;67776;52.012;4.736;2023-04-08T06:03:31;82.93;;;17.33;;
78489;SDS011;67776;52.012;4.736;2023-04-08T06:05:59;93.22;;;16.98;;
78489;SDS011;67776;52.012;4.736;2023-04-08T06:08:24;83.80;;;16.75;;
78489;SDS011;67776;52.012;4.736;2023-04-08T06:10:51;78.87;;;15.97;;
78489;SDS011;67776;52.012;4.736;2023-04-08T06:13:19;102.60;;;17.20;;
78489;SDS011;67776;52.012;4.736;2023-04-08T06:15:46;60.97;;;16.87;;
78489;SDS011;67776;52.012;4.736;2023-04-08T06:18:12;71.63;;;16.80;;
78489;SDS011;67776;52.012;4.736;2023-04-08T06:20:38;80.38;;;16.75;;
78489;SDS011;67776;52.012;4.736;2023-04-08T06:23:04;72.47;;;15.77;;
78489;SDS011;67776;52.012;4.736;2023-04-08T06:25:30;62.75;;;16.45;;
78489;SDS011;67776;52.012;4.736;2023-04-08T06:27:57;72.38;;;17.38;;
78489;SDS011;67776;52.012;4.736;2023-04-08T06:30:24;72.07;;;17.83;;
78489;SDS011;67776;52.012;4.736;2023-04-08T06:32:49;65.07;;;17.40;;
78489;SDS011;67776;52.012;4.736;2023-04-08T06:35:16;68.97;;;16.37;;
78489;SDS011;67776;52.012;4.736;2023-04-08T06:37:41;64.20;;;17.92;;
78489;SDS011;67776;52.012;4.736;2023-04-08T06:40:07;69.53;;;18.33;;
78489;SDS011;67776;52.012;4.736;2023-04-08T06:42:33;80.18;;;18.80;;
78489;SDS011;67776;52.012;4.736;2023-04-08T06:44:58;74.50;;;18.90;;
78489;SDS011;67776;52.012;4.736;2023-04-08T06:47:23;64.43;;;18.07;;
78489;SDS011;67776;52.012;4.736;2023-04-08T06:49:49;70.77;;;18.83;;
78489;SDS011;67776;52.012;4.736;2023-04-08T06:52:14;54.83;;;18.08;;
78489;SDS011;67776;52.012;4.736;2023-04-08T06:54:40;63.13;;;19.85;;
78489;SDS011;67776;52.012;4.736;2023-04-08T06:57:06;65.80;;;19.37;;
78489;SDS011;67776;52.012;4.736;2023-04-08T06:59:31;61.00;;;18.90;;
78489;SDS011;67776;52.012;4.736;2023-04-08T07:01:57;60.97;;;19.27;;
78489;SDS011;67776;52.012;4.736;2023-04-08T07:04:22;61.13;;;20.20;;
78489;SDS011;67776;52.012;4.736;2023-04-08T07:06:47;55.67;;;19.13;;
78489;SDS011;67776;52.012;4.736;2023-04-08T07:09:13;49.00;;;19.17;;
78489;SDS011;67776;52.012;4.736;2023-04-08T07:11:38;52.43;;;19.00;;
78489;SDS011;67776;52.012;4.736;2023-04-08T07:14:04;56.13;;;18.30;;
78489;SDS011;67776;52.012;4.736;2023-04-08T07:16:29;46.57;;;18.97;;
78489;SDS011;67776;52.012;4.736;2023-04-08T07:18:54;63.20;;;18.52;;
78489;SDS011;67776;52.012;4.736;2023-04-08T07:21:20;60.97;;;19.23;;
78489;SDS011;67776;52.012;4.736;2023-04-08T07:23:46;71.97;;;20.52;;
78489;SDS011;67776;52.012;4.736;2023-04-08T07:26:11;60.63;;;20.40;;
78489;SDS011;67776;52.012;4.736;2023-04-08T07:28:37;63.00;;;18.83;;
78489;SDS011;67776;52.012;4.736;2023-04-08T07:31:09;54.90;;;19.10;;
78489;SDS011;67776;52.012;4.736;2023-04-08T07:33:41;60.90;;;19.55;;
78489;SDS011;67776;52.012;4.736;2023-04-08T07:36:08;62.35;;;19.02;;
78489;SDS011;67776;52.012;4.736;2023-04-08T07:38:34;62.05;;;19.95;;
78489;SDS011;67776;52.012;4.736;2023-04-08T07:40:59;60.43;;;20.33;;
78489;SDS011;67776;52.012;4.736;2023-04-08T07:43:25;62.83;;;21.17;;
78489;SDS011;67776;52.012;4.736;2023-04-08T07:45:58;59.35;;;19.02;;
78489;SDS011;67776;52.012;4.736;2023-04-08T07:48:26;54.75;;;19.60;;
78489;SDS011;67776;52.012;4.736;2023-04-08T07:50:52;55.10;;;20.63;;
78489;SDS011;67776;52.012;4.736;2023-04-08T07:53:17;47.50;;;18.50;;
78489;SDS011;67776;52.012;4.736;2023-04-08T07:55:42;46.03;;;17.40;;
78489;SDS011;67776;52.012;4.736;2023-04-08T07:58:08;49.57;;;16.87;;
78489;SDS011;67776;52.012;4.736;2023-04-08T08:00:33;42.80;;;16.77;;
78489;SDS011;67776;52.012;4.736;2023-04-08T08:03:01;53.22;;;17.52;;
78489;SDS011;67776;52.012;4.736;2023-04-08T08:05:29;44.60;;;17.45;;
78489;SDS011;67776;52.012;4.736;2023-04-08T08:07:55;43.03;;;17.33;;
78489;SDS011;67776;52.012;4.736;2023-04-08T08:10:23;38.97;;;15.57;;
78489;SDS011;67776;52.012;4.736;2023-04-08T08:12:48;43.63;;;15.83;;
78489;SDS011;67776;52.012;4.736;2023-04-08T08:15:14;46.55;;;16.83;;
78489;SDS011;67776;52.012;4.736;2023-04-08T08:17:39;40.00;;;15.77;;
78489;SDS011;67776;52.012;4.736;2023-04-08T08:20:05;42.27;;;16.17;;
78489;SDS011;67776;52.012;4.736;2023-04-08T08:22:31;39.90;;;15.63;;
78489;SDS011;67776;52.012;4.736;2023-04-08T08:24:56;37.50;;;16.33;;
78489;SDS011;67776;52.012;4.736;2023-04-08T08:27:22;37.73;;;15.87;;
78489;SDS011;67776;52.012;4.736;2023-04-08T08:29:47;32.92;;;14.10;;
78489;SDS011;67776;52.012;4.736;2023-04-08T08:32:12;30.17;;;14.50;;
78489;SDS011;67776;52.012;4.736;2023-04-08T08:34:38;36.43;;;14.77;;
78489;SDS011;67776;52.012;4.736;2023-04-08T08:37:03;29.33;;;15.33;;
78489;SDS011;67776;52.012;4.736;2023-04-08T08:39:29;32.30;;;15.23;;
78489;SDS011;67776;52.012;4.736;2023-04-08T08:41:56;34.30;;;15.68;;
78489;SDS011;67776;52.012;4.736;2023-04-08T08:44:21;37.22;;;15.70;;
78489;SDS011;67776;52.012;4.736;2023-04-08T08:46:47;28.83;;;14.27;;
78489;SDS011;67776;52.012;4.736;2023-04-08T08:49:19;30.17;;;14.63;;
78489;SDS011;67776;52.012;4.736;2023-04-08T08:51:45;31.97;;;14.63;;
78489;SDS011;67776;52.012;4.736;2023-04-08T08:54:14;29.48;;;14.70;;
78489;SDS011;67776;52.012;4.736;2023-04-08T08:56:40;28.93;;;15.37;;
78489;SDS011;67776;52.012;4.736;2023-04-08T08:59:07;27.95;;;14.93;;
78489;SDS011;67776;52.012;4.736;2023-04-08T09:01:34;26.27;;;14.10;;
78489;SDS011;67776;52.012;4.736;2023-04-08T09:04:11;27.10;;;14.07;;
78489;SDS011;67776;52.012;4.736;2023-04-08T09:06:42;28.30;;;15.20;;
78489;SDS011;67776;52.012;4.736;2023-04-08T09:09:11;28.27;;;15.25;;
78489;SDS011;67776;52.012;4.736;2023-04-08T09:11:38;27.45;;;15.32;;
78489;SDS011;67776;52.012;4.736;2023-04-08T09:14:04;27.50;;;15.63;;
78489;SDS011;67776;52.012;4.736;2023-04-08T09:16:41;26.05;;;14.48;;
78489;SDS011;67776;52.012;4.736;2023-04-08T09:19:07;24.88;;;13.65;;
78489;SDS011;67776;52.012;4.736;2023-04-08T09:21:35;23.33;;;13.63;;
78489;SDS011;67776;52.012;4.736;2023-04-08T09:24:05;22.10;;;13.70;;
78489;SDS011;67776;52.012;4.736;2023-04-08T09:26:30;22.77;;;14.33;;
78489;SDS011;67776;52.012;4.736;2023-04-08T09:29:05;24.80;;;15.40;;
78489;SDS011;67776;52.012;4.736;2023-04-08T09:31:32;23.23;;;13.80;;
78489;SDS011;67776;52.012;4.736;2023-04-08T09:36:38;24.48;;;14.75;;
78489;SDS011;67776;52.012;4.736;2023-04-08T09:39:04;23.13;;;14.98;;
78489;SDS011;67776;52.012;4.736;2023-04-08T09:41:34;23.90;;;14.93;;
78489;SDS011;67776;52.012;4.736;2023-04-08T09:44:01;24.05;;;15.15;;
78489;SDS011;67776;52.012;4.736;2023-04-08T09:46:32;23.50;;;14.75;;
78489;SDS011;67776;52.012;4.736;2023-04-08T09:49:09;23.88;;;15.88;;
78489;SDS011;67776;52.012;4.736;2023-04-08T09:52:06;27.73;;;15.98;;
78489;SDS011;67776;52.012;4.736;2023-04-08T09:55:00;25.80;;;16.67;;
78489;SDS011;67776;52.012;4.736;2023-04-08T10:00:14;24.05;;;16.08;;
78489;SDS011;67776;52.012;4.736;2023-04-08T10:05:36;24.75;;;16.77;;
78489;SDS011;67776;52.012;4.736;2023-04-08T10:08:04;25.07;;;16.13;;
78489;SDS011;67776;52.012;4.736;2023-04-08T10:10:31;24.98;;;15.95;;
78489;SDS011;67776;52.012;4.736;2023-04-08T10:13:04;22.65;;;15.48;;
78489;SDS011;67776;52.012;4.736;2023-04-08T10:15:32;20.10;;;14.38;;
78489;SDS011;67776;52.012;4.736;2023-04-08T10:23:04;19.20;;;13.50;;
78489;SDS011;67776;52.012;4.736;2023-04-08T10:25:34;17.77;;;13.18;;
78489;SDS011;67776;52.012;4.736;2023-04-08T10:30:51;17.33;;;12.73;;
78489;SDS011;67776;52.012;4.736;2023-04-08T10:33:21;16.52;;;12.65;;
78489;SDS011;67776;52.012;4.736;2023-04-08T10:35:54;18.40;;;12.87;;
78489;SDS011;67776;52.012;4.736;2023-04-08T10:38:33;18.00;;;13.20;;
78489;SDS011;67776;52.012;4.736;2023-04-08T10:40:59;16.58;;;12.40;;
78489;SDS011;67776;52.012;4.736;2023-04-08T10:43:31;17.40;;;12.07;;
78489;SDS011;67776;52.012;4.736;2023-04-08T10:45:57;17.73;;;11.40;;
78489;SDS011;67776;52.012;4.736;2023-04-08T10:48:23;17.97;;;12.53;;
78489;SDS011;67776;52.012;4.736;2023-04-08T10:51:01;17.08;;;11.75;;
78489;SDS011;67776;52.012;4.736;2023-04-08T10:53:31;15.52;;;11.50;;
78489;SDS011;67776;52.012;4.736;2023-04-08T10:56:07;18.13;;;12.53;;
78489;SDS011;67776;52.012;4.736;2023-04-08T11:01:14;16.45;;;11.98;;
78489;SDS011;67776;52.012;4.736;2023-04-08T11:03:40;19.70;;;11.40;;
78489;SDS011;67776;52.012;4.736;2023-04-08T11:06:06;16.88;;;12.00;;
78489;SDS011;67776;52.012;4.736;2023-04-08T11:08:32;15.73;;;11.70;;
78489;SDS011;67776;52.012;4.736;2023-04-08T11:10:59;14.68;;;11.45;;
78489;SDS011;67776;52.012;4.736;2023-04-08T11:13:29;17.73;;;11.85;;
78489;SDS011;67776;52.012;4.736;2023-04-08T11:15:56;15.75;;;11.65;;
78489;SDS011;67776;52.012;4.736;2023-04-08T11:20:51;18.50;;;11.50;;
78489;SDS011;67776;52.012;4.736;2023-04-08T11:23:17;15.57;;;11.60;;
78489;SDS011;67776;52.012;4.736;2023-04-08T11:25:44;15.60;;;11.82;;
78489;SDS011;67776;52.012;4.736;2023-04-08T11:28:11;16.63;;;11.60;;
78489;SDS011;67776;52.012;4.736;2023-04-08T11:30:37;14.17;;;10.77;;
78489;SDS011;67776;52.012;4.736;2023-04-08T11:33:04;15.40;;;11.90;;
78489;SDS011;67776;52.012;4.736;2023-04-08T11:35:30;16.30;;;11.80;;
78489;SDS011;67776;52.012;4.736;2023-04-08T11:37:56;17.10;;;11.53;;
78489;SDS011;67776;52.012;4.736;2023-04-08T11:40:22;15.98;;;11.75;;
78489;SDS011;67776;52.012;4.736;2023-04-08T11:42:48;15.75;;;11.57;;
78489;SDS011;67776;52.012;4.736;2023-04-08T11:45:15;15.97;;;11.47;;
78489;SDS011;67776;52.012;4.736;2023-04-08T11:47:43;18.92;;;11.07;;
78489;SDS011;67776;52.012;4.736;2023-04-08T11:50:09;14.90;;;10.93;;
78489;SDS011;67776;52.012;4.736;2023-04-08T11:52:48;14.80;;;11.03;;
78489;SDS011;67776;52.012;4.736;2023-04-08T11:55:22;15.52;;;10.65;;
78489;SDS011;67776;52.012;4.736;2023-04-08T11:57:47;16.30;;;11.15;;
78489;SDS011;67776;52.012;4.736;2023-04-08T12:00:13;16.30;;;10.73;;
78489;SDS011;67776;52.012;4.736;2023-04-08T12:02:39;14.75;;;10.65;;
78489;SDS011;67776;52.012;4.736;2023-04-08T12:05:04;17.30;;;11.23;;
78489;SDS011;67776;52.012;4.736;2023-04-08T12:07:30;15.07;;;10.63;;
78489;SDS011;67776;52.012;4.736;2023-04-08T12:09:56;13.88;;;10.20;;
78489;SDS011;67776;52.012;4.736;2023-04-08T12:12:21;13.53;;;9.80;;
78489;SDS011;67776;52.012;4.736;2023-04-08T12:14:47;14.47;;;10.20;;
78489;SDS011;67776;52.012;4.736;2023-04-08T12:17:12;15.20;;;10.00;;
78489;SDS011;67776;52.012;4.736;2023-04-08T12:19:37;14.13;;;9.80;;
78489;SDS011;67776;52.012;4.736;2023-04-08T12:22:03;13.07;;;9.53;;
78489;SDS011;67776;52.012;4.736;2023-04-08T12:24:28;13.85;;;10.00;;
78489;SDS011;67776;52.012;4.736;2023-04-08T12:26:53;14.77;;;10.07;;
78489;SDS011;67776;52.012;4.736;2023-04-08T12:29:20;12.67;;;9.20;;
78489;SDS011;67776;52.012;4.736;2023-04-08T12:31:45;15.70;;;9.50;;
78489;SDS011;67776;52.012;4.736;2023-04-08T12:34:11;14.47;;;9.83;;
78489;SDS011;67776;52.012;4.736;2023-04-08T12:36:36;14.13;;;10.43;;
78489;SDS011;67776;52.012;4.736;2023-04-08T12:39:02;14.93;;;9.90;;
78489;SDS011;67776;52.012;4.736;2023-04-08T12:41:27;14.40;;;8.93;;
78489;SDS011;67776;52.012;4.736;2023-04-08T12:43:53;15.27;;;9.93;;
78489;SDS011;67776;52.012;4.736;2023-04-08T12:46:18;13.43;;;9.60;;
78489;SDS011;67776;52.012;4.736;2023-04-08T12:48:43;13.40;;;9.47;;
78489;SDS011;67776;52.012;4.736;2023-04-08T12:51:12;12.20;;;8.80;;
78489;SDS011;67776;52.012;4.736;2023-04-08T12:53:37;14.43;;;8.95;;
78489;SDS011;67776;52.012;4.736;2023-04-08T12:56:03;16.90;;;8.47;;
78489;SDS011;67776;52.012;4.736;2023-04-08T12:58:29;15.33;;;9.13;;
78489;SDS011;67776;52.012;4.736;2023-04-08T13:00:54;12.07;;;8.88;;
78489;SDS011;67776;52.012;4.736;2023-04-08T13:03:19;12.63;;;9.50;;
78489;SDS011;67776;52.012;4.736;2023-04-08T13:05:45;14.00;;;9.53;;
78489;SDS011;67776;52.012;4.736;2023-04-08T13:08:11;13.23;;;9.40;;
78489;SDS011;67776;52.012;4.736;2023-04-08T13:10:36;12.57;;;9.20;;
78489;SDS011;67776;52.012;4.736;2023-04-08T13:13:02;11.60;;;8.87;;
78489;SDS011;67776;52.012;4.736;2023-04-08T13:15:27;11.90;;;8.93;;
78489;SDS011;67776;52.012;4.736;2023-04-08T13:17:52;12.93;;;9.60;;
78489;SDS011;67776;52.012;4.736;2023-04-08T13:20:18;12.30;;;9.27;;
78489;SDS011;67776;52.012;4.736;2023-04-08T13:22:43;13.27;;;9.67;;
78489;SDS011;67776;52.012;4.736;2023-04-08T13:25:09;12.77;;;9.27;;
78489;SDS011;67776;52.012;4.736;2023-04-08T13:27:34;12.43;;;9.80;;
78489;SDS011;67776;52.012;4.736;2023-04-08T13:30:00;14.37;;;9.40;;
78489;SDS011;67776;52.012;4.736;2023-04-08T13:32:25;13.27;;;9.57;;
78489;SDS011;67776;52.012;4.736;2023-04-08T13:34:50;14.57;;;9.50;;
78489;SDS011;67776;52.012;4.736;2023-04-08T13:37:18;14.33;;;8.93;;
78489;SDS011;67776;52.012;4.736;2023-04-08T13:39:44;19.17;;;9.07;;
78489;SDS011;67776;52.012;4.736;2023-04-08T13:42:09;15.07;;;8.82;;
78489;SDS011;67776;52.012;4.736;2023-04-08T13:44:35;13.90;;;8.70;;
78489;SDS011;67776;52.012;4.736;2023-04-08T13:47:00;14.97;;;8.17;;
78489;SDS011;67776;52.012;4.736;2023-04-08T13:49:25;14.30;;;8.90;;
78489;SDS011;67776;52.012;4.736;2023-04-08T13:51:51;13.88;;;8.40;;
78489;SDS011;67776;52.012;4.736;2023-04-08T13:54:16;13.67;;;8.27;;
78489;SDS011;67776;52.012;4.736;2023-04-08T13:56:42;15.40;;;8.83;;
78489;SDS011;67776;52.012;4.736;2023-04-08T13:59:07;14.67;;;8.70;;
78489;SDS011;67776;52.012;4.736;2023-04-08T14:01:34;13.20;;;7.85;;
78489;SDS011;67776;52.012;4.736;2023-04-08T14:03:59;18.37;;;8.53;;
78489;SDS011;67776;52.012;4.736;2023-04-08T14:06:25;14.70;;;7.93;;
78489;SDS011;67776;52.012;4.736;2023-04-08T14:08:50;15.20;;;7.93;;
78489;SDS011;67776;52.012;4.736;2023-04-08T14:11:15;13.27;;;7.43;;
78489;SDS011;67776;52.012;4.736;2023-04-08T14:13:41;12.90;;;7.00;;
78489;SDS011;67776;52.012;4.736;2023-04-08T14:16:06;13.43;;;6.97;;
78489;SDS011;67776;52.012;4.736;2023-04-08T14:18:31;12.50;;;7.13;;
78489;SDS011;67776;52.012;4.736;2023-04-08T14:20:57;13.83;;;7.10;;
78489;SDS011;67776;52.012;4.736;2023-04-08T14:23:22;15.07;;;7.10;;
78489;SDS011;67776;52.012;4.736;2023-04-08T14:25:47;14.67;;;6.63;;
78489;SDS011;67776;52.012;4.736;2023-04-08T14:28:13;12.80;;;6.40;;
78489;SDS011;67776;52.012;4.736;2023-04-08T14:30:38;13.53;;;6.87;;
78489;SDS011;67776;52.012;4.736;2023-04-08T14:33:03;13.50;;;6.47;;
78489;SDS011;67776;52.012;4.736;2023-04-08T14:35:31;12.90;;;6.85;;
78489;SDS011;67776;52.012;4.736;2023-04-08T14:37:57;12.60;;;6.77;;
78489;SDS011;67776;52.012;4.736;2023-04-08T14:40:22;15.27;;;6.47;;
78489;SDS011;67776;52.012;4.736;2023-04-08T14:42:48;15.10;;;6.83;;